sensor_id;sensor_type;location;lat;lon;timestamp;temperature;humidity
17442;DHT22;8838;50.144;8.176;2023-06-04T00:02:02;11.80;99.90
17442;DHT22;8838;50.144;8.176;2023-06-04T00:04:29;11.70;99.90
17442;DHT22;8838;50.144;8.176;2023-06-04T00:06:56;11.70;99.90
17442;DHT22;8838;50.144;8.176;2023-06-04T00:09:26;11.60;99.90
17442;DHT22;8838;50.144;8.176;2023-06-04T00:11:53;11.50;99.90
17442;DHT22;8838;50.144;8.176;2023-06-04T00:14:19;11.50;99.90
17442;DHT22;8838;50.144;8.176;2023-06-04T00:16:46;11.40;99.90
17442;DHT22;8838;50.144;8.176;2023-06-04T00:19:13;11.40;99.90
17442;DHT22;8838;50.144;8.176;2023-06-04T00:21:40;11.30;99.90
17442;DHT22;8838;50.144;8.176;2023-06-04T00:24:06;11.20;99.90
17442;DHT22;8838;50.144;8.176;2023-06-04T00:26:35;11.10;99.90
17442;DHT22;8838;50.144;8.176;2023-06-04T00:29:01;11.10;99.90
17442;DHT22;8838;50.144;8.176;2023-06-04T00:31:28;11.10;99.90
17442;DHT22;8838;50.144;8.176;2023-06-04T00:33:55;10.90;99.90
17442;DHT22;8838;50.144;8.176;2023-06-04T00:36:23;10.70;99.90
17442;DHT22;8838;50.144;8.176;2023-06-04T00:38:50;10.70;99.90
17442;DHT22;8838;50.144;8.176;2023-06-04T00:41:17;10.80;99.90
17442;DHT22;8838;50.144;8.176;2023-06-04T00:43:45;10.90;99.90
17442;DHT22;8838;50.144;8.176;2023-06-04T00:46:21;11.00;99.90
17442;DHT22;8838;50.144;8.176;2023-06-04T00:48:48;10.90;99.90
17442;DHT22;8838;50.144;8.176;2023-06-04T00:51:15;10.60;99.90
17442;DHT22;8838;50.144;8.176;2023-06-04T00:53:42;10.50;99.90
17442;DHT22;8838;50.144;8.176;2023-06-04T00:56:09;10.40;99.90
17442;DHT22;8838;50.144;8.176;2023-06-04T00:58:38;10.50;99.90
17442;DHT22;8838;50.144;8.176;2023-06-04T01:01:12;10.40;99.90
17442;DHT22;8838;50.144;8.176;2023-06-04T01:03:44;10.40;99.90
17442;DHT22;8838;50.144;8.176;2023-06-04T01:06:15;10.40;99.90
17442;DHT22;8838;50.144;8.176;2023-06-04T01:08:48;10.20;99.90
17442;DHT22;8838;50.144;8.176;2023-06-04T01:11:16;10.20;99.90
17442;DHT22;8838;50.144;8.176;2023-06-04T01:13:43;10.30;99.90
17442;DHT22;8838;50.144;8.176;2023-06-04T01:16:15;10.30;99.90
17442;DHT22;8838;50.144;8.176;2023-06-04T01:18:42;10.10;99.90
17442;DHT22;8838;50.144;8.176;2023-06-04T01:21:10;10.10;99.90
17442;DHT22;8838;50.144;8.176;2023-06-04T01:23:46;10.10;99.90
17442;DHT22;8838;50.144;8.176;2023-06-04T01:26:15;10.00;99.90
17442;DHT22;8838;50.144;8.176;2023-06-04T01:28:44;10.00;99.90
17442;DHT22;8838;50.144;8.176;2023-06-04T01:31:14;10.00;99.90
17442;DHT22;8838;50.144;8.176;2023-06-04T01:33:40;10.00;99.90
17442;DHT22;8838;50.144;8.176;2023-06-04T01:36:07;10.00;99.90
17442;DHT22;8838;50.144;8.176;2023-06-04T01:38:36;10.00;99.90
17442;DHT22;8838;50.144;8.176;2023-06-04T01:41:04;9.90;99.90
17442;DHT22;8838;50.144;8.176;2023-06-04T01:43:31;10.00;99.90
17442;DHT22;8838;50.144;8.176;2023-06-04T01:46:00;9.90;99.90
17442;DHT22;8838;50.144;8.176;2023-06-04T01:48:28;9.90;99.90
17442;DHT22;8838;50.144;8.176;2023-06-04T01:50:57;9.80;99.90
17442;DHT22;8838;50.144;8.176;2023-06-04T01:53:24;9.70;99.90
17442;DHT22;8838;50.144;8.176;2023-06-04T01:55:50;9.70;99.90
17442;DHT22;8838;50.144;8.176;2023-06-04T01:58:18;9.80;99.90
17442;DHT22;8838;50.144;8.176;2023-06-04T02:00:48;9.70;99.90
17442;DHT22;8838;50.144;8.176;2023-06-04T02:03:15;9.60;99.90
17442;DHT22;8838;50.144;8.176;2023-06-04T02:05:43;9.50;99.90
17442;DHT22;8838;50.144;8.176;2023-06-04T02:08:16;9.50;99.90
17442;DHT22;8838;50.144;8.176;2023-06-04T02:10:45;9.50;99.90
17442;DHT22;8838;50.144;8.176;2023-06-04T02:13:13;9.50;99.90
17442;DHT22;8838;50.144;8.176;2023-06-04T02:15:41;9.50;99.90
17442;DHT22;8838;50.144;8.176;2023-06-04T02:18:13;9.50;99.90
17442;DHT22;8838;50.144;8.176;2023-06-04T02:20:42;9.40;99.90
17442;DHT22;8838;50.144;8.176;2023-06-04T02:23:10;9.40;99.90
17442;DHT22;8838;50.144;8.176;2023-06-04T02:25:37;9.40;99.90
17442;DHT22;8838;50.144;8.176;2023-06-04T02:28:03;9.50;99.90
17442;DHT22;8838;50.144;8.176;2023-06-04T02:30:30;9.30;99.90
17442;DHT22;8838;50.144;8.176;2023-06-04T02:32:57;9.20;99.90
17442;DHT22;8838;50.144;8.176;2023-06-04T02:35:26;9.10;99.90
17442;DHT22;8838;50.144;8.176;2023-06-04T02:37:54;9.20;99.90
17442;DHT22;8838;50.144;8.176;2023-06-04T02:40:23;9.00;99.90
17442;DHT22;8838;50.144;8.176;2023-06-04T02:42:50;9.00;99.90
17442;DHT22;8838;50.144;8.176;2023-06-04T02:45:17;9.00;99.90
17442;DHT22;8838;50.144;8.176;2023-06-04T02:47:43;9.00;99.90
17442;DHT22;8838;50.144;8.176;2023-06-04T02:50:11;9.00;99.90
17442;DHT22;8838;50.144;8.176;2023-06-04T02:52:38;9.00;99.90
17442;DHT22;8838;50.144;8.176;2023-06-04T02:55:07;9.20;99.90
17442;DHT22;8838;50.144;8.176;2023-06-04T02:57:38;9.00;99.90
17442;DHT22;8838;50.144;8.176;2023-06-04T03:00:06;9.00;99.90
17442;DHT22;8838;50.144;8.176;2023-06-04T03:02:38;8.90;99.90
17442;DHT22;8838;50.144;8.176;2023-06-04T03:05:05;8.80;99.90
17442;DHT22;8838;50.144;8.176;2023-06-04T03:07:32;8.70;99.90
17442;DHT22;8838;50.144;8.176;2023-06-04T03:09:59;8.60;99.90
17442;DHT22;8838;50.144;8.176;2023-06-04T03:12:27;8.40;99.90
17442;DHT22;8838;50.144;8.176;2023-06-04T03:14:54;8.30;99.90
17442;DHT22;8838;50.144;8.176;2023-06-04T03:17:21;8.30;99.90
17442;DHT22;8838;50.144;8.176;2023-06-04T03:19:50;8.30;99.90
17442;DHT22;8838;50.144;8.176;2023-06-04T03:22:16;8.20;99.90
17442;DHT22;8838;50.144;8.176;2023-06-04T03:24:43;8.20;99.90
17442;DHT22;8838;50.144;8.176;2023-06-04T03:27:11;8.20;99.90
17442;DHT22;8838;50.144;8.176;2023-06-04T03:29:39;8.20;99.90
17442;DHT22;8838;50.144;8.176;2023-06-04T03:32:07;8.30;99.90
17442;DHT22;8838;50.144;8.176;2023-06-04T03:34:34;8.50;99.90
17442;DHT22;8838;50.144;8.176;2023-06-04T03:37:01;8.40;99.90
17442;DHT22;8838;50.144;8.176;2023-06-04T03:39:30;8.30;99.90
17442;DHT22;8838;50.144;8.176;2023-06-04T03:41:56;8.10;99.90
17442;DHT22;8838;50.144;8.176;2023-06-04T03:44:23;8.00;99.90
17442;DHT22;8838;50.144;8.176;2023-06-04T03:46:51;8.00;99.90
17442;DHT22;8838;50.144;8.176;2023-06-04T03:49:18;7.90;99.90
17442;DHT22;8838;50.144;8.176;2023-06-04T03:51:45;7.90;99.90
17442;DHT22;8838;50.144;8.176;2023-06-04T03:54:12;8.00;99.90
17442;DHT22;8838;50.144;8.176;2023-06-04T03:56:42;8.10;99.90
17442;DHT22;8838;50.144;8.176;2023-06-04T03:59:09;8.20;99.90
17442;DHT22;8838;50.144;8.176;2023-06-04T04:01:36;8.20;99.90
17442;DHT22;8838;50.144;8.176;2023-06-04T04:04:05;8.30;99.90
17442;DHT22;8838;50.144;8.176;2023-06-04T04:06:32;8.40;99.90
17442;DHT22;8838;50.144;8.176;2023-06-04T04:09:01;8.40;99.90
17442;DHT22;8838;50.144;8.176;2023-06-04T04:11:28;8.50;99.90
17442;DHT22;8838;50.144;8.176;2023-06-04T04:13:56;8.50;99.90
17442;DHT22;8838;50.144;8.176;2023-06-04T04:16:23;8.50;99.90
17442;DHT22;8838;50.144;8.176;2023-06-04T04:18:50;8.50;99.90
17442;DHT22;8838;50.144;8.176;2023-06-04T04:21:18;8.60;99.90
17442;DHT22;8838;50.144;8.176;2023-06-04T04:23:46;8.60;99.90
17442;DHT22;8838;50.144;8.176;2023-06-04T04:26:13;8.70;99.90
17442;DHT22;8838;50.144;8.176;2023-06-04T04:28:42;8.70;99.90
17442;DHT22;8838;50.144;8.176;2023-06-04T04:31:08;8.70;99.90
17442;DHT22;8838;50.144;8.176;2023-06-04T04:33:37;8.70;99.90
17442;DHT22;8838;50.144;8.176;2023-06-04T04:36:05;8.80;99.90
17442;DHT22;8838;50.144;8.176;2023-06-04T04:38:38;8.80;99.90
17442;DHT22;8838;50.144;8.176;2023-06-04T04:41:08;8.90;99.90
17442;DHT22;8838;50.144;8.176;2023-06-04T04:43:36;8.90;99.90
17442;DHT22;8838;50.144;8.176;2023-06-04T04:46:03;8.90;99.90
17442;DHT22;8838;50.144;8.176;2023-06-04T04:48:30;9.00;99.90
17442;DHT22;8838;50.144;8.176;2023-06-04T04:50:56;9.00;99.90
17442;DHT22;8838;50.144;8.176;2023-06-04T04:53:23;9.10;99.90
17442;DHT22;8838;50.144;8.176;2023-06-04T04:55:51;9.10;99.90
17442;DHT22;8838;50.144;8.176;2023-06-04T04:58:18;9.20;99.90
17442;DHT22;8838;50.144;8.176;2023-06-04T05:00:45;9.30;99.90
17442;DHT22;8838;50.144;8.176;2023-06-04T05:03:13;9.40;99.90
17442;DHT22;8838;50.144;8.176;2023-06-04T05:05:40;9.60;99.90
17442;DHT22;8838;50.144;8.176;2023-06-04T05:08:06;9.70;99.90
17442;DHT22;8838;50.144;8.176;2023-06-04T05:10:33;9.90;99.90
17442;DHT22;8838;50.144;8.176;2023-06-04T05:13:04;9.90;99.90
17442;DHT22;8838;50.144;8.176;2023-06-04T05:15:31;10.00;99.90
17442;DHT22;8838;50.144;8.176;2023-06-04T05:17:58;10.10;99.90
17442;DHT22;8838;50.144;8.176;2023-06-04T05:20:27;10.20;99.90
17442;DHT22;8838;50.144;8.176;2023-06-04T05:22:54;10.20;99.90
17442;DHT22;8838;50.144;8.176;2023-06-04T05:25:21;10.30;99.90
17442;DHT22;8838;50.144;8.176;2023-06-04T05:27:48;10.30;99.90
17442;DHT22;8838;50.144;8.176;2023-06-04T05:30:17;10.40;99.90
17442;DHT22;8838;50.144;8.176;2023-06-04T05:32:44;10.50;99.90
17442;DHT22;8838;50.144;8.176;2023-06-04T05:35:10;10.70;99.90
17442;DHT22;8838;50.144;8.176;2023-06-04T05:37:38;10.80;99.90
17442;DHT22;8838;50.144;8.176;2023-06-04T05:40:07;10.80;99.90
17442;DHT22;8838;50.144;8.176;2023-06-04T05:42:35;10.90;99.90
17442;DHT22;8838;50.144;8.176;2023-06-04T05:45:05;11.00;99.90
17442;DHT22;8838;50.144;8.176;2023-06-04T05:47:34;11.20;99.90
17442;DHT22;8838;50.144;8.176;2023-06-04T05:50:02;11.30;99.90
17442;DHT22;8838;50.144;8.176;2023-06-04T05:52:31;11.50;99.90
17442;DHT22;8838;50.144;8.176;2023-06-04T05:55:01;11.60;99.90
17442;DHT22;8838;50.144;8.176;2023-06-04T05:57:27;11.70;99.90
17442;DHT22;8838;50.144;8.176;2023-06-04T05:59:54;11.90;99.90
17442;DHT22;8838;50.144;8.176;2023-06-04T06:02:21;12.00;99.90
17442;DHT22;8838;50.144;8.176;2023-06-04T06:04:49;12.10;99.90
17442;DHT22;8838;50.144;8.176;2023-06-04T06:07:16;12.20;99.90
17442;DHT22;8838;50.144;8.176;2023-06-04T06:09:43;12.40;99.90
17442;DHT22;8838;50.144;8.176;2023-06-04T06:12:10;12.50;99.90
17442;DHT22;8838;50.144;8.176;2023-06-04T06:14:37;12.60;99.90
17442;DHT22;8838;50.144;8.176;2023-06-04T06:17:07;12.70;99.90
17442;DHT22;8838;50.144;8.176;2023-06-04T06:19:33;12.70;99.90
17442;DHT22;8838;50.144;8.176;2023-06-04T06:22:02;12.90;99.90
17442;DHT22;8838;50.144;8.176;2023-06-04T06:24:30;13.00;99.90
17442;DHT22;8838;50.144;8.176;2023-06-04T06:26:57;13.10;99.90
17442;DHT22;8838;50.144;8.176;2023-06-04T06:29:23;13.20;99.90
17442;DHT22;8838;50.144;8.176;2023-06-04T06:31:50;13.40;99.90
17442;DHT22;8838;50.144;8.176;2023-06-04T06:34:17;13.50;99.90
17442;DHT22;8838;50.144;8.176;2023-06-04T06:36:44;13.70;99.90
17442;DHT22;8838;50.144;8.176;2023-06-04T06:39:12;13.80;99.90
17442;DHT22;8838;50.144;8.176;2023-06-04T06:41:39;13.90;99.90
17442;DHT22;8838;50.144;8.176;2023-06-04T06:44:06;14.00;99.90
17442;DHT22;8838;50.144;8.176;2023-06-04T06:46:33;14.10;99.90
17442;DHT22;8838;50.144;8.176;2023-06-04T06:48:59;14.20;99.90
17442;DHT22;8838;50.144;8.176;2023-06-04T06:51:26;14.50;99.90
17442;DHT22;8838;50.144;8.176;2023-06-04T06:53:53;14.60;99.90
17442;DHT22;8838;50.144;8.176;2023-06-04T06:56:22;14.90;99.90
17442;DHT22;8838;50.144;8.176;2023-06-04T06:58:49;15.10;99.90
17442;DHT22;8838;50.144;8.176;2023-06-04T07:01:18;15.40;99.90
17442;DHT22;8838;50.144;8.176;2023-06-04T07:03:45;15.60;99.90
17442;DHT22;8838;50.144;8.176;2023-06-04T07:06:12;15.90;99.90
17442;DHT22;8838;50.144;8.176;2023-06-04T07:08:39;16.20;99.90
17442;DHT22;8838;50.144;8.176;2023-06-04T07:11:07;16.40;99.90
17442;DHT22;8838;50.144;8.176;2023-06-04T07:13:41;16.70;99.90
17442;DHT22;8838;50.144;8.176;2023-06-04T07:16:11;17.00;99.90
17442;DHT22;8838;50.144;8.176;2023-06-04T07:18:38;17.30;99.90
17442;DHT22;8838;50.144;8.176;2023-06-04T07:21:04;17.50;99.90
17442;DHT22;8838;50.144;8.176;2023-06-04T07:23:31;17.70;99.90
17442;DHT22;8838;50.144;8.176;2023-06-04T07:25:58;17.80;99.90
17442;DHT22;8838;50.144;8.176;2023-06-04T07:28:25;18.00;99.90
17442;DHT22;8838;50.144;8.176;2023-06-04T07:30:53;18.20;99.90
17442;DHT22;8838;50.144;8.176;2023-06-04T07:33:20;18.40;99.90
17442;DHT22;8838;50.144;8.176;2023-06-04T07:35:47;18.60;99.90
17442;DHT22;8838;50.144;8.176;2023-06-04T07:38:14;18.90;99.90
17442;DHT22;8838;50.144;8.176;2023-06-04T07:40:41;19.10;99.90
17442;DHT22;8838;50.144;8.176;2023-06-04T07:43:08;19.40;99.90
17442;DHT22;8838;50.144;8.176;2023-06-04T07:45:34;19.70;99.90
17442;DHT22;8838;50.144;8.176;2023-06-04T07:48:03;19.90;99.90
17442;DHT22;8838;50.144;8.176;2023-06-04T07:50:30;20.00;99.90
17442;DHT22;8838;50.144;8.176;2023-06-04T07:52:57;20.20;99.90
17442;DHT22;8838;50.144;8.176;2023-06-04T07:55:23;20.50;99.90
17442;DHT22;8838;50.144;8.176;2023-06-04T07:57:50;20.80;99.90
17442;DHT22;8838;50.144;8.176;2023-06-04T08:00:17;21.00;99.90
17442;DHT22;8838;50.144;8.176;2023-06-04T08:02:45;21.40;99.90
17442;DHT22;8838;50.144;8.176;2023-06-04T08:05:13;21.80;99.90
17442;DHT22;8838;50.144;8.176;2023-06-04T08:07:40;22.00;99.90
17442;DHT22;8838;50.144;8.176;2023-06-04T08:10:07;22.20;99.90
17442;DHT22;8838;50.144;8.176;2023-06-04T08:12:34;22.60;99.90
17442;DHT22;8838;50.144;8.176;2023-06-04T08:15:01;22.90;99.90
17442;DHT22;8838;50.144;8.176;2023-06-04T08:17:28;23.40;99.90
17442;DHT22;8838;50.144;8.176;2023-06-04T08:19:56;23.70;99.90
17442;DHT22;8838;50.144;8.176;2023-06-04T08:22:27;24.40;99.90
17442;DHT22;8838;50.144;8.176;2023-06-04T08:24:54;24.70;99.90
17442;DHT22;8838;50.144;8.176;2023-06-04T08:27:21;25.00;99.00
17442;DHT22;8838;50.144;8.176;2023-06-04T08:29:48;25.00;96.40
17442;DHT22;8838;50.144;8.176;2023-06-04T08:32:15;25.30;96.20
17442;DHT22;8838;50.144;8.176;2023-06-04T08:34:42;25.80;95.60
17442;DHT22;8838;50.144;8.176;2023-06-04T08:37:11;26.10;94.90
17442;DHT22;8838;50.144;8.176;2023-06-04T08:39:40;26.40;93.90
17442;DHT22;8838;50.144;8.176;2023-06-04T08:42:09;26.40;91.50
17442;DHT22;8838;50.144;8.176;2023-06-04T08:44:43;26.30;91.60
17442;DHT22;8838;50.144;8.176;2023-06-04T08:47:13;26.20;92.20
17442;DHT22;8838;50.144;8.176;2023-06-04T08:49:41;26.30;92.20
17442;DHT22;8838;50.144;8.176;2023-06-04T08:52:10;26.30;91.50
17442;DHT22;8838;50.144;8.176;2023-06-04T08:54:37;26.40;90.60
17442;DHT22;8838;50.144;8.176;2023-06-04T08:57:06;26.20;90.10
17442;DHT22;8838;50.144;8.176;2023-06-04T08:59:37;26.40;90.10
17442;DHT22;8838;50.144;8.176;2023-06-04T09:02:04;26.40;89.30
17442;DHT22;8838;50.144;8.176;2023-06-04T09:04:32;26.80;88.40
17442;DHT22;8838;50.144;8.176;2023-06-04T09:07:01;27.40;88.60
17442;DHT22;8838;50.144;8.176;2023-06-04T09:09:29;26.80;88.30
17442;DHT22;8838;50.144;8.176;2023-06-04T09:11:57;26.90;87.10
17442;DHT22;8838;50.144;8.176;2023-06-04T09:14:25;26.90;85.80
17442;DHT22;8838;50.144;8.176;2023-06-04T09:16:53;26.90;87.30
17442;DHT22;8838;50.144;8.176;2023-06-04T09:19:22;27.20;85.30
17442;DHT22;8838;50.144;8.176;2023-06-04T09:21:50;26.90;84.20
17442;DHT22;8838;50.144;8.176;2023-06-04T09:24:18;27.10;86.60
17442;DHT22;8838;50.144;8.176;2023-06-04T09:26:44;27.30;82.40
17442;DHT22;8838;50.144;8.176;2023-06-04T09:29:15;27.60;83.60
17442;DHT22;8838;50.144;8.176;2023-06-04T09:31:46;27.50;81.80
17442;DHT22;8838;50.144;8.176;2023-06-04T09:34:27;27.80;82.70
17442;DHT22;8838;50.144;8.176;2023-06-04T09:36:58;28.20;83.30
17442;DHT22;8838;50.144;8.176;2023-06-04T09:39:25;28.20;81.20
17442;DHT22;8838;50.144;8.176;2023-06-04T09:41:59;27.60;80.80
17442;DHT22;8838;50.144;8.176;2023-06-04T09:44:27;27.40;82.80
17442;DHT22;8838;50.144;8.176;2023-06-04T09:46:57;27.90;80.20
17442;DHT22;8838;50.144;8.176;2023-06-04T09:49:24;27.50;79.70
17442;DHT22;8838;50.144;8.176;2023-06-04T09:51:51;27.90;80.20
17442;DHT22;8838;50.144;8.176;2023-06-04T09:54:18;27.90;79.60
17442;DHT22;8838;50.144;8.176;2023-06-04T09:56:48;27.90;78.80
17442;DHT22;8838;50.144;8.176;2023-06-04T09:59:15;27.80;78.00
17442;DHT22;8838;50.144;8.176;2023-06-04T10:01:43;27.60;79.00
17442;DHT22;8838;50.144;8.176;2023-06-04T10:04:13;27.90;79.10
17442;DHT22;8838;50.144;8.176;2023-06-04T10:06:41;27.80;79.20
17442;DHT22;8838;50.144;8.176;2023-06-04T10:09:09;27.80;78.70
17442;DHT22;8838;50.144;8.176;2023-06-04T10:11:41;28.20;78.80
17442;DHT22;8838;50.144;8.176;2023-06-04T10:14:18;28.00;75.90
17442;DHT22;8838;50.144;8.176;2023-06-04T10:16:46;27.30;75.20
17442;DHT22;8838;50.144;8.176;2023-06-04T10:19:16;28.00;75.30
17442;DHT22;8838;50.144;8.176;2023-06-04T10:21:43;28.40;74.70
17442;DHT22;8838;50.144;8.176;2023-06-04T10:24:11;28.30;73.00
17442;DHT22;8838;50.144;8.176;2023-06-04T10:26:39;28.10;74.50
17442;DHT22;8838;50.144;8.176;2023-06-04T10:29:07;27.70;76.60
17442;DHT22;8838;50.144;8.176;2023-06-04T10:31:36;27.20;75.40
17442;DHT22;8838;50.144;8.176;2023-06-04T10:34:03;27.60;74.20
17442;DHT22;8838;50.144;8.176;2023-06-04T10:36:42;28.20;74.60
17442;DHT22;8838;50.144;8.176;2023-06-04T10:39:10;28.30;73.70
17442;DHT22;8838;50.144;8.176;2023-06-04T10:41:37;28.10;71.80
17442;DHT22;8838;50.144;8.176;2023-06-04T10:44:05;28.10;72.00
17442;DHT22;8838;50.144;8.176;2023-06-04T10:46:39;28.60;71.90
17442;DHT22;8838;50.144;8.176;2023-06-04T10:49:08;28.60;72.70
17442;DHT22;8838;50.144;8.176;2023-06-04T10:51:38;28.50;73.90
17442;DHT22;8838;50.144;8.176;2023-06-04T10:54:09;28.80;73.20
17442;DHT22;8838;50.144;8.176;2023-06-04T10:56:36;28.80;73.80
17442;DHT22;8838;50.144;8.176;2023-06-04T10:59:13;28.90;74.40
17442;DHT22;8838;50.144;8.176;2023-06-04T11:01:42;29.10;73.60
17442;DHT22;8838;50.144;8.176;2023-06-04T11:04:21;29.40;73.10
17442;DHT22;8838;50.144;8.176;2023-06-04T11:07:00;29.70;74.10
17442;DHT22;8838;50.144;8.176;2023-06-04T11:09:27;29.50;72.80
17442;DHT22;8838;50.144;8.176;2023-06-04T11:11:58;29.80;73.70
17442;DHT22;8838;50.144;8.176;2023-06-04T11:14:25;29.80;70.00
17442;DHT22;8838;50.144;8.176;2023-06-04T11:16:52;30.20;71.50
17442;DHT22;8838;50.144;8.176;2023-06-04T11:19:18;30.10;71.50
17442;DHT22;8838;50.144;8.176;2023-06-04T11:21:46;30.10;72.70
17442;DHT22;8838;50.144;8.176;2023-06-04T11:24:14;29.90;70.60
17442;DHT22;8838;50.144;8.176;2023-06-04T11:26:42;29.40;69.50
17442;DHT22;8838;50.144;8.176;2023-06-04T11:29:11;29.60;70.00
17442;DHT22;8838;50.144;8.176;2023-06-04T11:31:42;29.50;70.90
17442;DHT22;8838;50.144;8.176;2023-06-04T11:34:09;29.00;73.50
17442;DHT22;8838;50.144;8.176;2023-06-04T11:36:38;29.10;72.10
17442;DHT22;8838;50.144;8.176;2023-06-04T11:39:05;29.40;70.80
17442;DHT22;8838;50.144;8.176;2023-06-04T11:41:38;29.30;71.80
17442;DHT22;8838;50.144;8.176;2023-06-04T11:44:05;29.20;71.20
17442;DHT22;8838;50.144;8.176;2023-06-04T11:46:32;29.00;71.70
17442;DHT22;8838;50.144;8.176;2023-06-04T11:48:59;28.80;71.70
17442;DHT22;8838;50.144;8.176;2023-06-04T11:51:26;28.30;72.40
17442;DHT22;8838;50.144;8.176;2023-06-04T11:53:53;28.00;74.30
17442;DHT22;8838;50.144;8.176;2023-06-04T11:56:22;27.80;70.70
17442;DHT22;8838;50.144;8.176;2023-06-04T11:58:54;27.70;73.10
17442;DHT22;8838;50.144;8.176;2023-06-04T12:01:21;27.60;72.70
17442;DHT22;8838;50.144;8.176;2023-06-04T12:03:48;27.80;72.80
17442;DHT22;8838;50.144;8.176;2023-06-04T12:06:16;27.70;71.50
17442;DHT22;8838;50.144;8.176;2023-06-04T12:08:50;27.50;72.10
17442;DHT22;8838;50.144;8.176;2023-06-04T12:11:25;27.30;72.20
17442;DHT22;8838;50.144;8.176;2023-06-04T12:13:55;27.10;72.90
17442;DHT22;8838;50.144;8.176;2023-06-04T12:16:22;26.90;72.80
17442;DHT22;8838;50.144;8.176;2023-06-04T12:18:48;26.80;75.00
17442;DHT22;8838;50.144;8.176;2023-06-04T12:21:18;27.00;74.60
17442;DHT22;8838;50.144;8.176;2023-06-04T12:23:45;27.40;73.20
17442;DHT22;8838;50.144;8.176;2023-06-04T12:26:20;27.60;72.30
17442;DHT22;8838;50.144;8.176;2023-06-04T12:29:00;27.40;72.30
17442;DHT22;8838;50.144;8.176;2023-06-04T12:31:27;27.20;73.50
17442;DHT22;8838;50.144;8.176;2023-06-04T12:33:58;27.40;73.20
17442;DHT22;8838;50.144;8.176;2023-06-04T12:36:25;27.70;72.70
17442;DHT22;8838;50.144;8.176;2023-06-04T12:38:58;27.50;70.90
17442;DHT22;8838;50.144;8.176;2023-06-04T12:41:26;27.50;73.00
17442;DHT22;8838;50.144;8.176;2023-06-04T12:43:54;27.60;73.40
17442;DHT22;8838;50.144;8.176;2023-06-04T12:46:22;27.90;73.30
17442;DHT22;8838;50.144;8.176;2023-06-04T12:48:49;27.90;72.40
17442;DHT22;8838;50.144;8.176;2023-06-04T12:51:16;27.80;73.10
17442;DHT22;8838;50.144;8.176;2023-06-04T12:53:44;28.00;72.10
17442;DHT22;8838;50.144;8.176;2023-06-04T12:56:11;28.10;70.80
17442;DHT22;8838;50.144;8.176;2023-06-04T12:58:38;27.90;72.00
17442;DHT22;8838;50.144;8.176;2023-06-04T13:01:05;27.80;72.60
17442;DHT22;8838;50.144;8.176;2023-06-04T13:03:35;27.70;74.00
17442;DHT22;8838;50.144;8.176;2023-06-04T13:06:03;27.30;72.60
17442;DHT22;8838;50.144;8.176;2023-06-04T13:08:30;27.10;74.30
17442;DHT22;8838;50.144;8.176;2023-06-04T13:10:57;27.10;74.30
17442;DHT22;8838;50.144;8.176;2023-06-04T13:13:23;27.00;75.10
17442;DHT22;8838;50.144;8.176;2023-06-04T13:15:51;27.20;74.90
17442;DHT22;8838;50.144;8.176;2023-06-04T13:18:17;27.50;73.40
17442;DHT22;8838;50.144;8.176;2023-06-04T13:20:45;27.60;72.10
17442;DHT22;8838;50.144;8.176;2023-06-04T13:23:14;27.50;72.40
17442;DHT22;8838;50.144;8.176;2023-06-04T13:25:42;27.40;71.80
17442;DHT22;8838;50.144;8.176;2023-06-04T13:28:09;27.20;72.90
17442;DHT22;8838;50.144;8.176;2023-06-04T13:30:36;27.50;73.00
17442;DHT22;8838;50.144;8.176;2023-06-04T13:33:03;27.70;72.70
17442;DHT22;8838;50.144;8.176;2023-06-04T13:35:30;27.80;73.70
17442;DHT22;8838;50.144;8.176;2023-06-04T13:37:59;27.90;71.40
17442;DHT22;8838;50.144;8.176;2023-06-04T13:40:25;28.00;72.10
17442;DHT22;8838;50.144;8.176;2023-06-04T13:42:52;28.10;71.50
17442;DHT22;8838;50.144;8.176;2023-06-04T13:45:20;28.00;70.00
17442;DHT22;8838;50.144;8.176;2023-06-04T13:47:47;28.00;71.50
17442;DHT22;8838;50.144;8.176;2023-06-04T13:50:15;27.90;70.30
17442;DHT22;8838;50.144;8.176;2023-06-04T13:52:41;27.80;70.10
17442;DHT22;8838;50.144;8.176;2023-06-04T13:55:12;27.70;71.80
17442;DHT22;8838;50.144;8.176;2023-06-04T13:57:39;27.20;70.10
17442;DHT22;8838;50.144;8.176;2023-06-04T14:00:06;27.20;74.10
17442;DHT22;8838;50.144;8.176;2023-06-04T14:02:33;27.50;73.30
17442;DHT22;8838;50.144;8.176;2023-06-04T14:05:04;27.80;71.30
17442;DHT22;8838;50.144;8.176;2023-06-04T14:07:31;27.90;71.40
17442;DHT22;8838;50.144;8.176;2023-06-04T14:09:57;27.90;71.30
17442;DHT22;8838;50.144;8.176;2023-06-04T14:12:26;28.20;71.30
17442;DHT22;8838;50.144;8.176;2023-06-04T14:14:52;28.20;70.30
17442;DHT22;8838;50.144;8.176;2023-06-04T14:17:19;28.20;68.30
17442;DHT22;8838;50.144;8.176;2023-06-04T14:19:46;27.90;70.70
17442;DHT22;8838;50.144;8.176;2023-06-04T14:22:13;28.00;68.90
17442;DHT22;8838;50.144;8.176;2023-06-04T14:24:40;27.90;71.00
17442;DHT22;8838;50.144;8.176;2023-06-04T14:27:07;28.20;69.40
17442;DHT22;8838;50.144;8.176;2023-06-04T14:29:36;28.30;67.30
17442;DHT22;8838;50.144;8.176;2023-06-04T14:32:04;28.20;68.20
17442;DHT22;8838;50.144;8.176;2023-06-04T14:34:33;28.30;68.40
17442;DHT22;8838;50.144;8.176;2023-06-04T14:37:02;28.00;68.20
17442;DHT22;8838;50.144;8.176;2023-06-04T14:39:29;28.10;68.30
17442;DHT22;8838;50.144;8.176;2023-06-04T14:41:58;28.10;68.00
17442;DHT22;8838;50.144;8.176;2023-06-04T14:44:25;27.70;67.90
17442;DHT22;8838;50.144;8.176;2023-06-04T14:46:53;27.70;68.30
17442;DHT22;8838;50.144;8.176;2023-06-04T14:49:20;27.60;67.60
17442;DHT22;8838;50.144;8.176;2023-06-04T14:51:47;27.50;67.90
17442;DHT22;8838;50.144;8.176;2023-06-04T14:54:14;27.80;68.10
17442;DHT22;8838;50.144;8.176;2023-06-04T14:56:41;28.00;69.40
17442;DHT22;8838;50.144;8.176;2023-06-04T14:59:09;28.20;70.20
17442;DHT22;8838;50.144;8.176;2023-06-04T15:01:38;28.50;69.00
17442;DHT22;8838;50.144;8.176;2023-06-04T15:04:07;28.40;67.90
17442;DHT22;8838;50.144;8.176;2023-06-04T15:06:34;28.60;67.40
17442;DHT22;8838;50.144;8.176;2023-06-04T15:09:04;28.40;65.70
17442;DHT22;8838;50.144;8.176;2023-06-04T15:11:31;28.50;67.10
17442;DHT22;8838;50.144;8.176;2023-06-04T15:13:57;28.50;67.20
17442;DHT22;8838;50.144;8.176;2023-06-04T15:16:24;28.50;66.10
17442;DHT22;8838;50.144;8.176;2023-06-04T15:18:51;28.60;66.50
17442;DHT22;8838;50.144;8.176;2023-06-04T15:21:19;28.60;67.10
17442;DHT22;8838;50.144;8.176;2023-06-04T15:23:46;28.50;65.30
17442;DHT22;8838;50.144;8.176;2023-06-04T15:26:16;28.30;66.70
17442;DHT22;8838;50.144;8.176;2023-06-04T15:28:43;28.10;66.60
17442;DHT22;8838;50.144;8.176;2023-06-04T15:31:10;28.20;68.00
17442;DHT22;8838;50.144;8.176;2023-06-04T15:33:37;28.10;66.40
17442;DHT22;8838;50.144;8.176;2023-06-04T15:36:05;27.80;67.50
17442;DHT22;8838;50.144;8.176;2023-06-04T15:38:33;27.40;66.90
17442;DHT22;8838;50.144;8.176;2023-06-04T15:41:00;27.50;67.10
17442;DHT22;8838;50.144;8.176;2023-06-04T15:43:27;27.80;67.90
17442;DHT22;8838;50.144;8.176;2023-06-04T15:45:54;28.00;67.80
17442;DHT22;8838;50.144;8.176;2023-06-04T15:48:20;28.10;67.30
17442;DHT22;8838;50.144;8.176;2023-06-04T15:50:48;28.20;68.10
17442;DHT22;8838;50.144;8.176;2023-06-04T15:53:15;28.20;68.30
17442;DHT22;8838;50.144;8.176;2023-06-04T15:55:44;28.20;67.80